Hovedside
METAR-TAF:

METAR-TAF

Lufthavner :

Hanoi, Vietnam

breddegrad: 21-01N, lengdegrad: 105-48E, høyde over havet: 6 m

Gjeldene værobservasjon

Denne rapporten ble laget for 34 minutter siden, klokken 19:00 UTC
Vind 7 kt fra Øst-nordøst, skiftende mellom Nord og Øst-nordøst
Temperatur 18°C
Luftfuktighet 94%
Trykk 1015 hPa
Sikt: 4100 m
Spredte skyer i en høyde av 1800 ft
dis

METAR: VVNB 191900Z 06007KT 010V070 4100 BR SCT018 18/17 Q1015 NOSIG

Tid: 02:34 (19:34 UTC)

Varsel

Denne rapporten ble laget for 2 timer og 34 minutter siden, klokken 17:00 UTC
Varsel gyldig fra 19. klokken 18 UTC til 20. klokken 18 UTC
Vind 5 kt fra Øst-nordøst
Sikt: 4000 m
Få skyer i en høyde av 2000 ft
dis
Midlertidig
fra 19. klokken 22 UTC til 20. klokken 01 UTC
Sikt: 2000 m
dis
Blir
fra 20. klokken 02 UTC til 20. klokken 03 UTC
Sikt: 6000 m

TAF: VVNB 191700Z 1918/2018 07005KT 4000 BR FEW020 TEMPO 1922/2001 2000 BR BECMG 2002/2003 6000 NSW

Værobservasjoner og værvarsel for over 4000 flyplasser (METAR- og TAF-rapporter).

Tilgjengelige stasjoner er representert av de røde og gule prikkene på kartet.

Hold musepekeren over prikken for å se navnet på stasjonen.

Klikk så for å se værobservasjoner og -varsler.

For å forandre kartet kan du klikke på den grønne knappen med svart kryss for å zoome inn, på den grønne knappen med strek for å zoome ut, eller på de grønne pilene for å se tilstøtende kart.


METAR-TAF: